createdAt,value
2017-07-11T00:00:46.946Z,5.47
2017-07-11T00:03:16.381Z,5.50
2017-07-11T00:05:45.835Z,5.10
2017-07-11T00:08:15.289Z,5.17
2017-07-11T00:10:44.731Z,5.17
2017-07-11T00:13:14.024Z,5.50
2017-07-11T00:15:43.290Z,5.00
2017-07-11T00:18:12.730Z,6.00
2017-07-11T00:20:42.194Z,5.93
2017-07-11T00:23:11.661Z,5.33
2017-07-11T00:25:41.101Z,5.63
2017-07-11T00:28:10.540Z,6.10
2017-07-11T00:30:40.048Z,5.63
2017-07-11T00:33:09.500Z,5.77
2017-07-11T00:35:38.926Z,6.70
2017-07-11T00:38:08.379Z,5.47
2017-07-11T00:40:37.823Z,5.23
2017-07-11T00:43:07.267Z,5.27
2017-07-11T00:45:36.714Z,5.43
2017-07-11T00:48:06.173Z,6.73
2017-07-11T00:50:35.621Z,7.17
2017-07-11T00:53:04.886Z,5.97
2017-07-11T00:55:34.342Z,6.07
2017-07-11T00:58:04.814Z,5.93
2017-07-11T01:00:34.253Z,6.93
2017-07-11T01:03:03.707Z,6.80
2017-07-11T01:05:33.153Z,6.73
2017-07-11T01:08:02.619Z,6.37
2017-07-11T01:10:32.073Z,7.23
2017-07-11T01:13:01.562Z,6.83
2017-07-11T01:15:31.022Z,7.63
2017-07-11T01:18:00.480Z,7.10
2017-07-11T01:20:29.943Z,5.80
2017-07-11T01:22:59.385Z,5.90
2017-07-11T01:25:28.825Z,5.47
2017-07-11T01:27:58.278Z,6.23
2017-07-11T01:30:27.726Z,6.60
2017-07-11T01:32:57.170Z,7.20
2017-07-11T01:35:26.631Z,7.23
2017-07-11T01:37:56.087Z,6.43
2017-07-11T01:40:25.550Z,7.10
2017-07-11T01:42:54.991Z,7.37
2017-07-11T01:45:24.447Z,6.87
2017-07-11T01:47:53.916Z,6.10
2017-07-11T01:50:23.358Z,7.10
2017-07-11T01:52:52.806Z,5.50
2017-07-11T01:55:22.246Z,6.23
2017-07-11T01:57:51.727Z,5.97
2017-07-11T02:00:20.810Z,4.80
2017-07-11T02:02:50.085Z,5.10
2017-07-11T02:05:19.196Z,5.30
2017-07-11T02:07:48.653Z,5.47
2017-07-11T02:10:18.123Z,5.60
2017-07-11T02:12:47.580Z,6.10
2017-07-11T02:15:17.022Z,4.70
2017-07-11T02:17:46.481Z,4.93
2017-07-11T02:20:15.938Z,4.43
2017-07-11T02:22:45.373Z,4.30
2017-07-11T02:25:14.817Z,5.07
2017-07-11T02:27:44.285Z,4.70
2017-07-11T02:30:13.730Z,4.30
2017-07-11T02:32:43.275Z,4.57
2017-07-11T02:35:12.721Z,4.33
2017-07-11T02:37:42.165Z,4.10
2017-07-11T02:40:11.605Z,4.47
2017-07-11T02:42:41.078Z,3.73
2017-07-11T02:45:10.526Z,3.40
2017-07-11T02:47:39.965Z,3.50
2017-07-11T02:50:09.414Z,3.67
2017-07-11T02:52:38.860Z,3.10
2017-07-11T02:55:08.344Z,3.40
2017-07-11T02:57:37.791Z,3.67
2017-07-11T03:00:07.230Z,3.10
2017-07-11T03:02:36.487Z,3.50
2017-07-11T03:05:05.925Z,3.50
2017-07-11T03:07:35.372Z,2.97
2017-07-11T03:10:04.810Z,3.23
2017-07-11T03:12:34.294Z,2.90
2017-07-11T03:15:03.727Z,3.13
2017-07-11T03:17:33.172Z,3.77
2017-07-11T03:20:02.646Z,3.37
2017-07-11T03:22:32.110Z,2.93
2017-07-11T03:25:01.550Z,3.27
2017-07-11T03:27:30.998Z,3.63
2017-07-11T03:30:00.438Z,2.60
2017-07-11T03:32:29.725Z,3.33
2017-07-11T03:34:59.181Z,3.20
2017-07-11T03:37:28.629Z,3.47
2017-07-11T03:39:58.065Z,2.87
2017-07-11T03:42:27.520Z,2.73
2017-07-11T03:44:56.970Z,3.00
2017-07-11T03:47:26.410Z,3.10
2017-07-11T03:49:55.866Z,2.90
2017-07-11T03:52:25.321Z,3.20
2017-07-11T03:54:54.755Z,3.07
2017-07-11T03:57:24.201Z,2.80
2017-07-11T03:59:53.997Z,3.03
2017-07-11T04:02:23.719Z,3.33
2017-07-11T04:04:53.190Z,3.17
2017-07-11T04:07:22.649Z,3.03
2017-07-11T04:09:52.101Z,3.57
2017-07-11T04:12:21.537Z,2.97
2017-07-11T04:14:51.063Z,3.10
2017-07-11T04:17:20.898Z,3.57
2017-07-11T04:19:50.350Z,2.57
2017-07-11T04:22:19.648Z,3.17
2017-07-11T04:24:49.078Z,2.80
2017-07-11T04:27:18.720Z,2.90
2017-07-11T04:29:48.165Z,3.30
2017-07-11T04:32:17.607Z,3.60
2017-07-11T04:34:47.060Z,2.57
2017-07-11T04:37:16.521Z,2.97
2017-07-11T04:39:45.953Z,3.47
2017-07-11T04:42:15.409Z,3.10
2017-07-11T04:44:44.878Z,3.30
2017-07-11T04:47:14.309Z,3.40
2017-07-11T04:49:43.759Z,2.70
2017-07-11T04:52:13.213Z,2.73
2017-07-11T04:54:42.671Z,2.57
2017-07-11T04:57:12.108Z,2.43
2017-07-11T04:59:41.578Z,2.70
2017-07-11T05:02:11.017Z,2.00
2017-07-11T05:04:40.463Z,2.57
2017-07-11T05:07:09.910Z,2.20
2017-07-11T05:09:39.365Z,3.00
2017-07-11T05:12:08.813Z,3.00
2017-07-11T05:14:38.257Z,2.40
2017-07-11T05:17:07.706Z,2.57
2017-07-11T05:19:37.153Z,2.30
2017-07-11T05:22:06.613Z,2.27
2017-07-11T05:24:36.058Z,2.67
2017-07-11T05:27:05.773Z,1.93
2017-07-11T05:29:35.246Z,2.60
2017-07-11T05:32:04.701Z,2.73
2017-07-11T05:34:34.157Z,2.70
2017-07-11T05:37:03.616Z,2.50
2017-07-11T05:39:33.061Z,2.20
2017-07-11T05:42:02.525Z,2.77
2017-07-11T05:44:32.000Z,2.87
2017-07-11T05:47:01.418Z,2.80
2017-07-11T05:49:30.869Z,2.27
2017-07-11T05:52:00.318Z,2.10
2017-07-11T05:54:29.754Z,2.50
2017-07-11T05:56:59.205Z,2.17
2017-07-11T05:59:28.654Z,1.83
2017-07-11T06:01:58.110Z,2.33
2017-07-11T06:04:27.598Z,2.17
2017-07-11T06:06:57.026Z,2.47
2017-07-11T06:09:26.469Z,2.30
2017-07-11T06:11:55.912Z,2.00
2017-07-11T06:14:25.359Z,1.70
2017-07-11T06:16:54.855Z,2.23
2017-07-11T06:19:24.293Z,2.30
2017-07-11T06:21:53.747Z,1.70
2017-07-11T06:24:23.189Z,1.83
2017-07-11T06:26:54.190Z,1.83
2017-07-11T06:29:23.641Z,1.67
2017-07-11T06:31:53.088Z,1.40
2017-07-11T06:34:22.525Z,1.80
2017-07-11T06:36:53.053Z,1.90
2017-07-11T06:39:22.496Z,1.40
2017-07-11T06:41:51.961Z,1.70
2017-07-11T06:44:21.423Z,1.73
2017-07-11T06:46:50.869Z,1.97
2017-07-11T06:49:20.326Z,1.60
2017-07-11T06:51:49.791Z,2.07
2017-07-11T06:54:19.260Z,1.80
2017-07-11T06:56:48.720Z,1.70
2017-07-11T06:59:18.182Z,1.60
2017-07-11T07:01:47.634Z,1.80
2017-07-11T07:04:17.082Z,2.60
2017-07-11T07:06:46.514Z,2.13
2017-07-11T07:09:15.953Z,1.60
2017-07-11T07:11:45.411Z,1.73
2017-07-11T07:14:14.863Z,1.30
2017-07-11T07:16:44.314Z,1.43
2017-07-11T07:19:13.777Z,1.53
2017-07-11T07:21:43.239Z,1.60
2017-07-11T07:24:12.686Z,1.57
2017-07-11T07:26:42.137Z,1.53
2017-07-11T07:29:11.606Z,1.33
2017-07-11T07:31:41.167Z,1.47
2017-07-11T07:34:10.642Z,1.20
2017-07-11T07:36:40.072Z,1.47
2017-07-11T07:39:09.541Z,1.60
2017-07-11T07:41:38.986Z,1.27
2017-07-11T07:44:08.426Z,1.10
2017-07-11T07:46:37.884Z,1.00
2017-07-11T07:49:07.338Z,1.37
2017-07-11T07:51:36.797Z,1.00
2017-07-11T07:54:06.239Z,1.20
2017-07-11T07:56:35.691Z,1.27
2017-07-11T07:59:05.124Z,1.30
2017-07-11T08:01:34.630Z,1.43
2017-07-11T08:04:04.083Z,1.20
2017-07-11T08:06:33.526Z,1.50
2017-07-11T08:09:02.971Z,1.13
2017-07-11T08:11:32.429Z,1.20
2017-07-11T08:14:01.879Z,1.00
2017-07-11T08:16:31.331Z,1.10
2017-07-11T08:19:00.766Z,1.23
2017-07-11T08:21:30.210Z,1.10
2017-07-11T08:23:59.670Z,1.10
2017-07-11T08:26:29.106Z,1.33
2017-07-11T08:28:58.553Z,1.10
2017-07-11T08:31:28.001Z,1.20
2017-07-11T08:33:57.458Z,1.10
2017-07-11T08:36:26.919Z,1.37
2017-07-11T08:38:56.379Z,1.20
2017-07-11T08:41:25.828Z,1.40
2017-07-11T08:43:55.256Z,1.10
2017-07-11T08:46:24.719Z,1.10
2017-07-11T08:48:54.179Z,0.97
2017-07-11T08:51:23.622Z,1.50
2017-07-11T08:53:53.086Z,1.40
2017-07-11T08:56:22.529Z,1.13
2017-07-11T08:58:52.401Z,1.20
2017-07-11T09:01:21.842Z,1.10
2017-07-11T09:03:51.291Z,1.03
2017-07-11T09:06:20.737Z,1.17
2017-07-11T09:08:50.226Z,1.30
2017-07-11T09:11:19.682Z,1.10
2017-07-11T09:13:49.118Z,1.20
2017-07-11T09:16:18.567Z,1.40
2017-07-11T09:25:35.254Z,1.37
2017-07-11T09:28:04.756Z,1.20
2017-07-11T09:30:34.407Z,1.47
2017-07-11T09:33:03.860Z,1.43
2017-07-11T09:35:33.327Z,1.30
2017-07-11T09:38:02.792Z,1.30
2017-07-11T09:40:32.277Z,1.20
2017-07-11T09:43:01.735Z,1.03
2017-07-11T09:45:31.181Z,1.07
2017-07-11T09:48:00.625Z,1.10
2017-07-11T09:50:30.069Z,1.30
2017-07-11T09:52:59.517Z,1.00
2017-07-11T09:55:28.961Z,1.47
2017-07-11T09:57:58.552Z,1.20
2017-07-11T10:00:28.018Z,1.43
2017-07-11T10:02:57.287Z,1.50
2017-07-11T10:05:26.743Z,1.40
2017-07-11T10:07:56.188Z,1.20
2017-07-11T10:10:25.630Z,1.20
2017-07-11T10:12:55.078Z,1.67
2017-07-11T10:15:24.530Z,1.10
2017-07-11T10:17:53.982Z,1.57
2017-07-11T10:20:23.434Z,1.40
2017-07-11T10:22:52.896Z,1.20
2017-07-11T10:25:22.360Z,1.40
2017-07-11T10:27:51.806Z,1.20
2017-07-11T10:30:21.242Z,1.40
2017-07-11T10:32:50.693Z,1.40
2017-07-11T10:35:20.143Z,1.50
2017-07-11T10:37:49.617Z,1.30
2017-07-11T10:40:19.057Z,1.23
2017-07-11T10:42:48.511Z,1.53
2017-07-11T10:45:17.967Z,1.43
2017-07-11T10:47:47.417Z,1.50
2017-07-11T10:50:16.877Z,1.83
2017-07-11T10:52:46.352Z,1.43
2017-07-11T10:55:15.807Z,1.13
2017-07-11T10:57:45.261Z,1.67
2017-07-11T11:00:14.707Z,1.30
2017-07-11T11:02:44.199Z,1.60
2017-07-11T11:05:13.654Z,1.30
2017-07-11T11:07:43.103Z,1.50
2017-07-11T11:10:12.567Z,1.50
2017-07-11T11:12:42.024Z,1.53
2017-07-11T11:15:11.489Z,1.30
2017-07-11T11:17:40.947Z,1.30
2017-07-11T11:20:10.509Z,1.20
2017-07-11T11:22:39.938Z,1.30
2017-07-11T11:25:09.401Z,1.23
2017-07-11T11:27:38.853Z,2.10
2017-07-11T11:30:08.305Z,1.40
2017-07-11T11:32:37.578Z,1.00
2017-07-11T11:35:07.075Z,1.20
2017-07-11T11:37:36.517Z,1.20
2017-07-11T11:40:05.974Z,1.40
2017-07-11T11:42:35.443Z,1.10
2017-07-11T11:45:04.880Z,1.47
2017-07-11T11:47:34.170Z,1.30
2017-07-11T11:50:03.612Z,1.13
2017-07-11T11:52:33.050Z,1.50
2017-07-11T11:55:02.513Z,1.67
2017-07-11T11:57:31.963Z,1.60
2017-07-11T12:00:01.401Z,1.13
2017-07-11T12:02:30.882Z,1.23
2017-07-11T12:05:00.340Z,1.40
2017-07-11T12:07:29.776Z,1.10
2017-07-11T12:09:59.392Z,1.40
2017-07-11T12:12:28.869Z,1.70
2017-07-11T12:14:58.318Z,1.30
2017-07-11T12:17:27.792Z,1.30
2017-07-11T12:19:57.233Z,1.57
2017-07-11T12:22:26.676Z,1.40
2017-07-11T12:24:56.140Z,1.10
2017-07-11T12:27:25.593Z,1.30
2017-07-11T12:29:55.042Z,1.23
2017-07-11T12:32:24.496Z,1.50
2017-07-11T12:34:54.019Z,1.33
2017-07-11T12:37:23.465Z,1.30
2017-07-11T12:39:53.035Z,1.53
2017-07-11T12:42:22.486Z,1.20
2017-07-11T12:44:51.914Z,1.37
2017-07-11T12:47:21.366Z,1.33
2017-07-11T12:49:50.831Z,1.20
2017-07-11T12:52:20.468Z,1.13
2017-07-11T12:54:49.995Z,1.10
2017-07-11T12:57:19.423Z,1.00
2017-07-11T12:59:48.898Z,1.07
2017-07-11T13:02:18.357Z,1.10
2017-07-11T13:04:47.798Z,1.07
2017-07-11T13:07:17.253Z,1.17
2017-07-11T13:09:46.705Z,1.00
2017-07-11T13:12:16.167Z,1.10
2017-07-11T13:14:45.633Z,1.03
2017-07-11T13:17:15.096Z,1.00
2017-07-11T13:19:44.559Z,1.00
2017-07-11T13:22:14.277Z,1.10
2017-07-11T13:24:43.726Z,1.20
2017-07-11T13:27:13.169Z,1.17
2017-07-11T13:29:42.674Z,1.30
2017-07-11T13:32:12.146Z,1.10
2017-07-11T13:34:41.244Z,1.27
2017-07-11T13:37:10.683Z,1.20
2017-07-11T13:39:40.242Z,1.30
2017-07-11T13:42:09.683Z,1.20
2017-07-11T13:44:39.118Z,1.27
2017-07-11T13:47:08.592Z,1.10
2017-07-11T13:49:38.055Z,1.10
2017-07-11T13:52:07.362Z,1.10
2017-07-11T13:54:36.790Z,1.40
2017-07-11T13:57:06.242Z,1.50
2017-07-11T13:59:35.681Z,1.10
2017-07-11T14:02:05.204Z,1.00
2017-07-11T14:04:34.653Z,1.00
2017-07-11T14:07:04.106Z,0.90
2017-07-11T14:09:33.589Z,1.10
2017-07-11T14:12:03.051Z,1.17
2017-07-11T14:14:32.491Z,1.20
2017-07-11T14:17:01.961Z,1.00
2017-07-11T14:19:31.425Z,1.50
2017-07-11T14:22:00.862Z,1.30
2017-07-11T14:24:30.341Z,1.00
2017-07-11T14:26:59.774Z,1.20
2017-07-11T14:29:29.222Z,1.30
2017-07-11T14:31:58.676Z,1.00
2017-07-11T14:34:28.132Z,1.10
2017-07-11T14:36:57.586Z,1.17
2017-07-11T14:39:27.057Z,1.20
2017-07-11T14:41:56.584Z,1.10
2017-07-11T14:44:26.060Z,1.13
2017-07-11T14:46:55.517Z,1.23
2017-07-11T14:49:24.961Z,1.13
2017-07-11T14:51:54.417Z,1.00
2017-07-11T14:54:23.893Z,1.10
2017-07-11T14:56:53.324Z,1.00
2017-07-11T14:59:22.789Z,1.20
2017-07-11T15:01:52.242Z,0.90
2017-07-11T15:04:21.706Z,1.17
2017-07-11T15:06:51.166Z,1.20
2017-07-11T15:09:20.632Z,1.00
2017-07-11T15:11:50.141Z,0.90
2017-07-11T15:14:19.593Z,0.90
2017-07-11T15:16:49.083Z,0.90
2017-07-11T15:19:18.527Z,1.20
2017-07-11T15:21:48.041Z,1.30
2017-07-11T15:24:17.634Z,0.90
2017-07-11T15:26:47.092Z,1.10
2017-07-11T15:29:16.547Z,0.90
2017-07-11T15:31:45.991Z,1.00
2017-07-11T15:34:15.458Z,1.20
2017-07-11T15:36:44.919Z,0.90
2017-07-11T15:39:14.376Z,1.00
2017-07-11T15:41:43.819Z,0.90
2017-07-11T15:44:13.262Z,1.20
2017-07-11T15:46:42.728Z,0.90
2017-07-11T15:49:12.173Z,1.00
2017-07-11T15:51:41.658Z,0.87
2017-07-11T15:54:11.117Z,1.20
2017-07-11T15:56:40.579Z,1.20
2017-07-11T15:59:10.037Z,1.10
2017-07-11T16:01:39.478Z,1.10
2017-07-11T16:04:08.934Z,1.13
2017-07-11T16:06:38.386Z,1.23
2017-07-11T16:09:07.839Z,1.27
2017-07-11T16:11:37.297Z,1.40
2017-07-11T16:14:06.817Z,1.00
2017-07-11T16:16:36.258Z,1.10
2017-07-11T16:19:05.703Z,1.20
2017-07-11T16:21:35.138Z,1.10
2017-07-11T16:24:04.592Z,1.40
2017-07-11T16:26:34.049Z,1.10
2017-07-11T16:29:03.481Z,1.17
2017-07-11T16:31:32.928Z,1.00
2017-07-11T16:34:02.382Z,0.87
2017-07-11T16:36:31.824Z,1.30
2017-07-11T16:39:02.036Z,0.90
2017-07-11T16:41:31.518Z,0.97
2017-07-11T16:44:00.991Z,0.80
2017-07-11T16:46:30.534Z,1.30
2017-07-11T16:49:00.009Z,1.20
2017-07-11T16:51:29.461Z,1.10
2017-07-11T16:53:58.924Z,1.10
2017-07-11T16:56:28.357Z,1.20
2017-07-11T16:58:57.820Z,1.00
2017-07-11T17:01:27.278Z,1.10
2017-07-11T17:03:56.731Z,1.10
2017-07-11T17:06:26.180Z,1.20
2017-07-11T17:08:55.644Z,1.27
2017-07-11T17:11:25.096Z,1.20
2017-07-11T17:13:54.677Z,1.20
2017-07-11T17:16:24.123Z,1.27
2017-07-11T17:18:53.564Z,1.10
2017-07-11T17:21:23.052Z,0.93
2017-07-11T17:23:52.490Z,1.20
2017-07-11T17:26:21.975Z,1.03
2017-07-11T17:28:51.428Z,1.00
2017-07-11T17:31:20.875Z,1.43
2017-07-11T17:33:50.353Z,1.10
2017-07-11T17:36:19.810Z,1.67
2017-07-11T17:38:49.254Z,1.47
2017-07-11T17:41:18.695Z,1.10
2017-07-11T17:43:48.142Z,1.30
2017-07-11T17:46:17.609Z,1.07
2017-07-11T17:48:47.090Z,1.10
2017-07-11T17:51:16.339Z,1.10
2017-07-11T17:53:45.805Z,1.10
2017-07-11T17:56:15.245Z,1.10
2017-07-11T17:58:44.733Z,1.20
2017-07-11T18:01:14.189Z,1.10
2017-07-11T18:03:43.634Z,1.60
2017-07-11T18:06:13.083Z,0.93
2017-07-11T18:08:42.541Z,1.27
2017-07-11T18:11:11.978Z,1.07
2017-07-11T18:13:41.419Z,1.30
2017-07-11T18:16:10.885Z,1.10
2017-07-11T18:18:40.325Z,1.03
2017-07-11T18:21:09.923Z,1.30
2017-07-11T18:23:39.377Z,1.13
2017-07-11T18:26:08.826Z,1.13
2017-07-11T18:28:38.269Z,1.20
2017-07-11T18:31:07.730Z,1.10
2017-07-11T18:33:37.284Z,1.30
2017-07-11T18:36:06.846Z,1.30
2017-07-11T18:38:36.314Z,1.60
2017-07-11T18:41:06.049Z,1.27
2017-07-11T18:43:35.573Z,1.20
2017-07-11T18:46:05.091Z,2.20
2017-07-11T18:48:34.532Z,1.97
2017-07-11T18:51:03.978Z,1.80
2017-07-11T18:53:33.439Z,2.37
2017-07-11T18:56:02.897Z,1.77
2017-07-11T18:58:32.348Z,1.73
2017-07-11T19:01:01.793Z,5.93
2017-07-11T19:03:31.249Z,2.20
2017-07-11T19:06:00.731Z,2.30
2017-07-11T19:08:30.169Z,2.03
2017-07-11T19:10:59.631Z,2.30
2017-07-11T19:13:29.098Z,2.13
2017-07-11T19:15:58.549Z,2.03
2017-07-11T19:18:28.020Z,1.60
2017-07-11T19:20:57.476Z,2.57
2017-07-11T19:23:26.937Z,2.10
2017-07-11T19:25:56.388Z,1.90
2017-07-11T19:28:25.862Z,1.70
2017-07-11T19:30:55.352Z,1.67
2017-07-11T19:33:24.807Z,2.00
2017-07-11T19:35:54.273Z,2.37
2017-07-11T19:38:23.750Z,1.60
2017-07-11T19:40:53.200Z,1.40
2017-07-11T19:43:22.657Z,1.37
2017-07-11T19:45:52.267Z,1.43
2017-07-11T19:48:21.734Z,1.87
2017-07-11T19:50:51.190Z,1.10
2017-07-11T19:53:20.707Z,3.20
2017-07-11T19:55:50.148Z,2.30
2017-07-11T19:58:19.590Z,1.63
2017-07-11T20:00:49.060Z,1.60
2017-07-11T20:03:18.506Z,1.37
2017-07-11T20:05:47.967Z,1.60
2017-07-11T20:08:17.428Z,1.80
2017-07-11T20:10:46.884Z,1.80
2017-07-11T20:13:16.335Z,1.50
2017-07-11T20:15:45.787Z,1.80
2017-07-11T20:18:15.238Z,4.60
2017-07-11T20:20:44.687Z,2.00
2017-07-11T20:23:14.133Z,2.10
2017-07-11T20:25:43.579Z,2.40
2017-07-11T20:28:13.018Z,1.80
2017-07-11T20:30:42.468Z,1.63
2017-07-11T20:33:11.965Z,1.90
2017-07-11T20:35:41.387Z,1.57
2017-07-11T20:38:10.846Z,4.20
2017-07-11T20:40:40.299Z,2.97
2017-07-11T20:43:09.758Z,2.87
2017-07-11T20:45:39.225Z,1.83
2017-07-11T20:48:08.659Z,1.60
2017-07-11T20:50:38.156Z,3.70
2017-07-11T20:53:07.601Z,1.70
2017-07-11T20:55:37.054Z,1.90
2017-07-11T20:58:06.508Z,1.50
2017-07-11T21:00:35.976Z,3.70
2017-07-11T21:03:05.452Z,2.07
2017-07-11T21:05:34.886Z,1.83
2017-07-11T21:08:04.346Z,2.53
2017-07-11T21:10:33.801Z,2.10
2017-07-11T21:13:03.252Z,1.87
2017-07-11T21:15:32.723Z,2.67
2017-07-11T21:18:02.178Z,3.07
2017-07-11T21:20:31.620Z,3.30
2017-07-11T21:23:01.090Z,1.73
2017-07-11T21:25:30.663Z,2.67
2017-07-11T21:28:00.115Z,2.40
2017-07-11T21:30:29.566Z,2.13
2017-07-11T21:32:59.012Z,2.40
2017-07-11T21:35:28.458Z,2.27
2017-07-11T21:37:57.933Z,3.03
2017-07-11T21:40:27.404Z,1.97
2017-07-11T21:42:56.864Z,2.90
2017-07-11T21:45:26.338Z,2.90
2017-07-11T21:47:55.787Z,2.30
2017-07-11T21:50:25.243Z,2.20
2017-07-11T21:52:54.686Z,1.53
2017-07-11T21:55:24.117Z,1.80
2017-07-11T21:57:53.570Z,1.57
2017-07-11T22:00:23.130Z,1.83
2017-07-11T22:02:52.409Z,1.80
2017-07-11T22:05:21.855Z,1.80
2017-07-11T22:07:51.306Z,1.70
2017-07-11T22:10:20.755Z,1.70
2017-07-11T22:12:50.201Z,1.57
2017-07-11T22:15:19.667Z,2.10
2017-07-11T22:17:49.360Z,2.00
2017-07-11T22:20:18.809Z,2.13
2017-07-11T22:22:48.266Z,1.97
2017-07-11T22:25:17.733Z,1.77
2017-07-11T22:27:47.183Z,2.10
2017-07-11T22:30:16.635Z,2.40
2017-07-11T22:32:46.080Z,2.13
2017-07-11T22:35:15.522Z,2.10
2017-07-11T22:37:44.969Z,1.77
2017-07-11T22:40:15.374Z,1.70
2017-07-11T22:42:44.829Z,2.00
2017-07-11T22:45:14.273Z,1.80
2017-07-11T22:47:43.735Z,1.80
2017-07-11T22:50:13.172Z,2.20
2017-07-11T22:52:42.609Z,1.90
2017-07-11T22:55:11.917Z,18.30
2017-07-11T22:57:41.381Z,6.30
2017-07-11T23:00:10.818Z,3.20
2017-07-11T23:02:40.387Z,3.03
2017-07-11T23:05:09.846Z,2.60
2017-07-11T23:07:39.298Z,2.20
2017-07-11T23:10:08.765Z,2.47
2017-07-11T23:12:38.217Z,2.70
2017-07-11T23:15:07.678Z,2.63
2017-07-11T23:17:37.126Z,2.30
2017-07-11T23:20:06.570Z,2.50
2017-07-11T23:22:36.053Z,2.53
2017-07-11T23:25:05.534Z,1.93
2017-07-11T23:27:34.972Z,1.93
2017-07-11T23:30:04.423Z,2.00
2017-07-11T23:32:33.866Z,2.10
2017-07-11T23:35:03.305Z,1.90
2017-07-11T23:37:32.577Z,1.60
2017-07-11T23:40:02.052Z,2.03
2017-07-11T23:42:31.557Z,1.77
2017-07-11T23:45:00.994Z,2.30
2017-07-11T23:47:30.429Z,2.10
2017-07-11T23:49:59.879Z,2.23
2017-07-11T23:52:29.330Z,2.00
2017-07-11T23:54:58.785Z,2.47
2017-07-11T23:57:28.241Z,2.40
2017-07-11T23:59:57.692Z,7.10
